createdAt,value
2017-01-02T18:28:07.067Z,3.78
2017-01-02T18:29:07.726Z,3.8
2017-01-02T18:30:08.390Z,3.84
2017-01-02T18:31:09.071Z,3.8
2017-01-02T18:32:10.502Z,3.91
2017-01-02T18:33:11.919Z,3.83
2017-01-02T18:34:12.823Z,3.84
2017-01-02T18:35:13.525Z,3.92
2017-01-02T18:36:14.210Z,3.94
2017-01-02T18:37:14.893Z,3.94
2017-01-02T18:38:15.606Z,3.92
2017-01-02T18:39:16.321Z,3.91
2017-01-02T18:40:16.997Z,3.86
2017-01-02T18:41:17.729Z,3.83
2017-01-02T18:42:18.414Z,3.77
2017-01-02T18:43:19.100Z,3.76
2017-01-02T18:44:19.769Z,3.69
2017-01-02T18:45:20.451Z,3.63
2017-01-02T18:46:21.134Z,3.62
2017-01-02T18:47:21.838Z,3.65
2017-01-02T18:48:22.678Z,3.66
2017-01-02T18:49:23.394Z,3.65
2017-01-02T18:50:26.951Z,3.65
2017-01-02T18:51:27.618Z,3.77
2017-01-02T18:52:30.869Z,3.69
2017-01-02T18:53:31.579Z,3.69
2017-01-02T18:54:32.255Z,3.6
2017-01-02T18:55:32.921Z,3.69
2017-01-02T18:56:33.597Z,3.66
2017-01-02T18:57:34.363Z,3.63
2017-01-02T18:58:35.056Z,3.6
2017-01-02T18:59:35.718Z,3.68
2017-01-02T19:00:36.387Z,3.63
2017-01-02T19:01:37.055Z,3.55
2017-01-02T19:02:37.908Z,3.59
2017-01-02T19:03:38.590Z,3.63
2017-01-02T19:04:39.314Z,3.59
2017-01-02T19:05:39.961Z,3.65
2017-01-02T19:06:40.662Z,3.63
2017-01-02T19:07:41.329Z,3.69
2017-01-02T19:08:42.002Z,3.59
2017-01-02T19:09:42.684Z,3.65
2017-01-02T19:10:43.357Z,3.65
2017-01-02T19:11:44.049Z,3.69
2017-01-02T19:12:44.777Z,3.6
2017-01-02T19:13:45.556Z,3.74
2017-01-02T19:14:46.434Z,3.62
2017-01-02T19:15:47.113Z,3.65
2017-01-02T19:16:47.813Z,3.69
2017-01-02T19:17:48.485Z,3.63
2017-01-02T19:18:49.178Z,3.66
2017-01-02T19:19:50.122Z,3.58
2017-01-02T19:20:50.785Z,3.55
2017-01-02T19:21:51.454Z,3.45
2017-01-02T19:22:52.135Z,3.5
2017-01-02T19:23:52.802Z,3.5
2017-01-02T19:24:53.502Z,3.44
2017-01-02T19:25:54.161Z,3.44
2017-01-02T19:26:55.338Z,3.45
2017-01-02T19:27:56.033Z,3.37
2017-01-02T19:28:56.708Z,3.36
2017-01-02T19:29:57.484Z,3.45
2017-01-02T19:30:58.167Z,3.37
2017-01-02T19:31:58.835Z,3.32
2017-01-02T19:32:59.586Z,3.41
2017-01-02T19:34:00.270Z,3.32
2017-01-02T19:35:01.032Z,3.32
2017-01-02T19:36:01.834Z,3.32
2017-01-02T19:37:02.509Z,3.41
2017-01-02T19:38:03.235Z,3.34
2017-01-02T19:39:04.095Z,3.31
2017-01-02T19:40:05.051Z,3.34
2017-01-02T19:41:05.797Z,3.5
2017-01-02T19:42:06.465Z,3.44
2017-01-02T19:43:07.147Z,3.48
2017-01-02T19:44:07.968Z,3.44
2017-01-02T19:45:08.779Z,3.34
2017-01-02T19:46:09.476Z,3.42
2017-01-02T19:47:10.246Z,3.37
2017-01-02T19:48:10.983Z,3.34
2017-01-02T19:49:11.676Z,3.37
2017-01-02T19:50:12.464Z,3.4
2017-01-02T19:51:13.128Z,3.36
2017-01-02T19:52:13.876Z,3.34
2017-01-02T19:53:14.717Z,3.41
2017-01-02T19:54:15.685Z,3.34
2017-01-02T19:55:16.519Z,3.37
2017-01-02T19:56:17.308Z,3.37
2017-01-02T19:57:18.385Z,3.32
2017-01-02T19:58:19.195Z,3.41
2017-01-02T19:59:19.884Z,3.47
2017-01-02T20:00:20.908Z,3.45
2017-01-02T20:01:21.921Z,3.42
2017-01-02T20:02:22.620Z,3.51
2017-01-02T20:03:23.506Z,3.47
2017-01-02T20:04:24.306Z,3.47
2017-01-02T20:05:25.091Z,3.51
2017-01-02T20:06:26.011Z,3.48
2017-01-02T20:07:26.703Z,3.53
2017-01-02T20:08:27.471Z,3.51
2017-01-02T20:09:28.259Z,3.47
2017-01-02T20:10:29.299Z,3.44
2017-01-02T20:11:30.138Z,3.45
2017-01-02T20:12:30.903Z,3.5
2017-01-02T20:13:31.757Z,3.55
2017-01-02T20:14:32.606Z,3.48
2017-01-02T20:15:33.412Z,3.53
2017-01-02T20:16:34.486Z,3.55
2017-01-02T20:17:35.435Z,3.53
2017-01-02T20:18:36.301Z,3.51
2017-01-02T20:19:37.221Z,3.44
2017-01-02T20:20:38.082Z,3.48
2017-01-02T20:21:38.887Z,3.48
2017-01-02T20:22:39.758Z,3.44
2017-01-02T20:23:40.681Z,3.53
2017-01-02T20:24:41.352Z,3.41
2017-01-02T20:25:42.245Z,3.4
2017-01-02T20:26:43.009Z,3.45
2017-01-02T20:27:43.855Z,3.32
2017-01-02T20:28:44.772Z,3.32
2017-01-02T20:29:45.608Z,3.4
2017-01-02T20:30:46.561Z,3.4
2017-01-02T20:31:47.350Z,3.36
2017-01-02T20:32:48.325Z,3.44
2017-01-02T20:33:49.106Z,3.42
2017-01-02T20:34:49.918Z,3.44
2017-01-02T20:35:51.263Z,3.45
2017-01-02T20:36:52.054Z,3.53
2017-01-02T20:37:52.817Z,3.44
2017-01-02T20:38:53.580Z,3.51
2017-01-02T20:39:54.672Z,3.47
2017-01-02T20:40:55.636Z,3.51
2017-01-02T20:41:56.321Z,3.47
2017-01-02T20:42:57.532Z,3.68
2017-01-02T20:43:58.816Z,3.66
2017-01-02T20:45:00.020Z,3.63
2017-01-02T20:46:00.728Z,3.6
2017-01-02T20:47:01.547Z,3.65
2017-01-02T20:48:02.358Z,3.68
2017-01-02T20:49:03.715Z,3.62
2017-01-02T20:50:05.665Z,3.74
2017-01-02T20:51:06.341Z,3.65
2017-01-02T20:52:07.026Z,3.66
2017-01-02T20:53:07.727Z,3.53
2017-01-02T20:54:10.238Z,3.68
2017-01-02T20:55:11.498Z,3.66
2017-01-02T20:56:13.506Z,3.66
2017-01-02T20:57:14.960Z,3.68
2017-01-02T20:58:16.957Z,3.68
2017-01-02T20:59:18.626Z,3.76
2017-01-02T21:00:20.274Z,3.65
2017-01-02T21:01:21.695Z,3.74
2017-01-02T21:02:22.897Z,3.68
2017-01-02T21:03:24.098Z,3.77
2017-01-02T21:04:25.054Z,3.76
2017-01-02T21:05:25.741Z,3.68
2017-01-02T21:06:26.664Z,3.73
2017-01-02T21:07:27.591Z,3.65
2017-01-02T21:08:28.666Z,3.68
2017-01-02T21:09:29.758Z,3.6
2017-01-02T21:10:31.089Z,3.77
2017-01-02T21:11:32.089Z,3.63
2017-01-02T21:12:32.739Z,3.69
2017-01-02T21:13:33.611Z,3.76
2017-01-02T21:14:34.750Z,3.77
2017-01-02T21:15:35.585Z,3.78
2017-01-02T21:16:36.523Z,3.8
2017-01-02T21:17:38.138Z,3.8
2017-01-02T21:18:38.820Z,3.84
2017-01-02T21:19:39.680Z,3.88
2017-01-02T21:20:40.716Z,3.91
2017-01-02T21:21:41.552Z,3.88
2017-01-02T21:22:42.340Z,3.84
2017-01-02T21:23:43.121Z,3.92
2017-01-02T21:24:44.024Z,3.95
2017-01-02T21:25:44.956Z,3.94
2017-01-02T21:26:46.040Z,3.94
2017-01-02T21:27:46.740Z,3.91
2017-01-02T21:28:47.467Z,3.94
2017-01-02T21:29:48.235Z,3.95
2017-01-02T21:30:48.949Z,3.87
2017-01-02T21:31:49.960Z,3.94
2017-01-02T21:32:50.819Z,3.95
2017-01-02T21:33:51.563Z,3.94
2017-01-02T21:34:53.135Z,3.99
2017-01-02T21:35:53.927Z,3.99
2017-01-02T21:36:54.784Z,4.02
2017-01-02T21:37:56.279Z,3.94
2017-01-02T21:38:57.024Z,3.98
2017-01-02T21:39:58.002Z,3.94
2017-01-02T21:40:58.773Z,3.96
2017-01-02T21:41:59.951Z,3.96
2017-01-02T21:43:00.765Z,3.96
2017-01-02T21:44:01.869Z,3.98
2017-01-02T21:45:03.514Z,3.94
2017-01-02T21:46:06.953Z,3.96
2017-01-02T21:47:08.383Z,3.92
2017-01-02T21:48:09.085Z,3.95
2017-01-02T21:49:09.770Z,3.91
2017-01-02T21:50:10.501Z,3.91
2017-01-02T21:51:11.199Z,3.94
2017-01-02T21:52:11.891Z,3.94
2017-01-02T21:53:12.779Z,3.92
2017-01-02T21:54:13.760Z,3.99
2017-01-02T21:55:14.543Z,3.96
2017-01-02T21:56:15.251Z,3.95
2017-01-02T21:57:15.949Z,3.95
2017-01-02T21:58:16.647Z,3.91
2017-01-02T21:59:17.323Z,3.94
2017-01-02T22:00:18.240Z,3.92
2017-01-02T22:01:18.955Z,3.96
2017-01-02T22:02:19.623Z,3.95
2017-01-02T22:03:20.296Z,4.01
2017-01-02T22:04:20.995Z,3.99
2017-01-02T22:05:21.662Z,4.01
2017-01-02T22:06:22.416Z,4.01
2017-01-02T22:07:23.108Z,4.04
2017-01-02T22:08:23.810Z,3.96
2017-01-02T22:09:24.489Z,4.01
2017-01-02T22:10:25.164Z,3.99
2017-01-02T22:11:25.842Z,3.99
2017-01-02T22:12:26.526Z,4.02
2017-01-02T22:13:30.429Z,4.01
2017-01-02T22:14:31.128Z,3.99
2017-01-02T22:15:31.804Z,3.98
2017-01-02T22:16:32.499Z,3.99
2017-01-02T22:17:33.184Z,3.96
2017-01-02T22:18:33.869Z,3.95
2017-01-02T22:19:34.750Z,3.94
2017-01-02T22:20:35.481Z,3.88
2017-01-02T22:21:36.160Z,3.95
2017-01-02T22:22:36.882Z,3.91
2017-01-02T22:23:37.798Z,3.92
2017-01-02T22:24:39.026Z,3.91
2017-01-02T22:25:40.107Z,3.92
2017-01-02T22:26:40.892Z,4.05
2017-01-02T22:27:41.661Z,3.98
2017-01-02T22:28:42.337Z,3.96
2017-01-02T22:29:43.303Z,3.95
2017-01-02T22:30:44.039Z,3.96
2017-01-02T22:31:44.759Z,3.99
2017-01-02T22:32:45.574Z,3.94
2017-01-02T22:33:46.432Z,3.92
2017-01-02T22:34:47.109Z,3.95
2017-01-02T22:35:47.856Z,3.98
2017-01-02T22:36:48.584Z,3.94
2017-01-02T22:37:49.411Z,3.96
2017-01-02T22:38:51.167Z,3.94
2017-01-02T22:39:54.081Z,3.94
2017-01-02T22:40:54.292Z,3.95
2017-01-02T22:41:55.014Z,3.96
2017-01-02T22:42:55.744Z,3.99
2017-01-02T22:43:56.535Z,3.99
2017-01-02T22:44:58.282Z,3.92
2017-01-02T22:45:58.968Z,3.95
2017-01-02T22:47:00.323Z,3.99
2017-01-02T22:48:00.915Z,4.02
2017-01-02T22:49:01.632Z,3.99
2017-01-02T22:50:02.700Z,3.96
2017-01-02T22:51:08.278Z,3.98
2017-01-02T22:52:09.001Z,3.99
2017-01-02T22:53:09.905Z,3.95
2017-01-02T22:54:11.133Z,3.92
2017-01-02T22:55:13.913Z,3.94
2017-01-02T22:56:14.655Z,3.95
2017-01-02T22:57:17.995Z,3.96
2017-01-02T22:58:20.602Z,3.88
2017-01-02T22:59:27.290Z,3.98
2017-01-02T23:00:30.195Z,3.91
2017-01-02T23:01:35.501Z,3.94
